Time;durP1;ratioP1;P1;durP2;ratioP2;P2;SDS_P1;SDS_P2;PMS_P1;PMS_P2;Temp;Humidity;BMP_temperature;BMP_pressure;BME280_temperature;BME280_humidity;BME280_pressure;Samples;Min_cycle;Max_cycle;Signal;HPM_P1;HPM_P2
2022/06/26 00:01:41;;;;;;;4.10;2.58;;;17.70;99.90;;;17.57;99.39;96931.25;5021166;28;20025;-47
2022/06/26 00:04:07;;;;;;;6.32;2.72;;;17.70;99.90;;;17.56;99.79;96930.38;5014306;28;20138;-45
2022/06/26 00:06:32;;;;;;;3.42;2.70;;;17.70;99.90;;;17.52;99.74;96931.56;5019873;28;20106;-45
2022/06/26 00:08:58;;;;;;;3.30;2.42;;;17.60;99.90;;;17.58;99.21;96932.09;5024290;28;20054;-47
2022/06/26 00:11:24;;;;;;;3.70;2.50;;;17.70;99.90;;;17.58;98.74;96932.94;5022382;28;20038;-47
2022/06/26 00:13:50;;;;;;;3.60;2.25;;;17.70;99.90;;;17.66;97.89;96945.72;5012555;28;20489;-47
2022/06/26 00:16:16;;;;;;;3.05;2.20;;;17.70;99.90;;;17.70;97.17;96948.03;5002524;28;20040;-47
2022/06/26 00:18:42;;;;;;;3.15;1.90;;;17.80;99.90;;;17.72;96.94;96959.44;5015335;28;20087;-46
2022/06/26 00:21:08;;;;;;;2.00;1.80;;;17.80;99.90;;;17.74;96.31;96965.50;5010809;28;20033;-45
2022/06/26 00:23:35;;;;;;;2.13;1.50;;;17.80;99.90;;;17.81;95.46;96973.09;5007454;28;20049;-45
2022/06/26 00:26:02;;;;;;;2.00;1.58;;;17.90;99.90;;;17.86;94.81;96977.16;4989727;28;20038;-47
2022/06/26 00:28:28;;;;;;;4.57;1.67;;;18.00;99.90;;;17.94;93.81;96987.25;5011675;28;20033;-44
2022/06/26 00:30:54;;;;;;;1.63;1.48;;;18.00;99.90;;;18.02;93.42;96992.03;4993046;28;20301;-45
2022/06/26 00:33:19;;;;;;;1.92;1.30;;;18.10;99.90;;;18.07;93.48;96997.88;5009976;28;20041;-47
2022/06/26 00:35:45;;;;;;;1.40;1.30;;;18.20;99.90;;;18.14;93.98;97012.47;5006357;28;20469;-45
2022/06/26 00:38:11;;;;;;;2.42;1.60;;;18.30;99.90;;;18.22;93.96;97010.09;5020362;28;20120;-44
2022/06/26 00:40:38;;;;;;;1.50;1.02;;;18.30;99.90;;;18.32;90.46;97007.56;5022149;28;20033;-46
2022/06/26 00:43:05;;;;;;;1.08;0.95;;;18.40;99.90;;;18.51;88.69;97001.72;5017267;28;23184;-47
2022/06/26 00:45:31;;;;;;;2.40;1.00;;;18.60;99.90;;;18.62;87.57;97025.78;5007245;28;20104;-45
2022/06/26 00:47:56;;;;;;;1.65;0.90;;;18.70;99.90;;;18.70;87.36;97030.56;5013878;28;20038;-48
2022/06/26 00:50:22;;;;;;;1.17;1.05;;;18.80;99.90;;;18.74;87.31;97024.03;4999056;28;20382;-47
2022/06/26 00:52:50;;;;;;;2.55;1.10;;;18.80;99.90;;;18.74;87.76;97034.69;5007788;28;20088;-47
2022/06/26 00:55:16;;;;;;;1.50;1.13;;;18.90;99.90;;;18.76;85.12;97043.44;5014464;28;20033;-46
2022/06/26 00:57:42;;;;;;;2.05;1.30;;;18.80;99.90;;;18.81;84.84;97045.78;5020395;28;20037;-45
2022/06/26 01:00:10;;;;;;;2.72;1.58;;;18.90;99.90;;;18.81;86.97;97044.00;5007364;28;20260;-43
2022/06/26 01:02:37;;;;;;;2.85;1.50;;;18.90;99.90;;;18.76;87.67;97053.28;5008644;28;20072;-47
2022/06/26 01:05:04;;;;;;;2.45;1.70;;;18.90;99.90;;;18.68;88.70;97041.38;4998714;28;20500;-44
2022/06/26 01:07:31;;;;;;;1.73;1.45;;;18.80;99.90;;;18.65;87.53;97038.06;5012884;28;20064;-46
2022/06/26 01:09:57;;;;;;;2.15;1.60;;;18.80;99.90;;;18.66;90.23;97047.78;5006164;28;21384;-48
2022/06/26 01:12:23;;;;;;;1.85;1.48;;;18.80;99.90;;;18.64;90.05;97041.69;5006913;28;20045;-47
2022/06/26 01:14:51;;;;;;;2.03;1.80;;;18.70;99.90;;;18.57;92.17;97043.97;5004434;28;20021;-47
2022/06/26 01:17:16;;;;;;;2.03;1.50;;;18.70;99.90;;;18.53;91.14;97037.16;5009826;28;20939;-46
2022/06/26 01:19:43;;;;;;;4.20;1.90;;;18.70;99.90;;;18.49;92.40;97030.34;5014774;28;20112;-46
2022/06/26 01:22:09;;;;;;;1.77;1.63;;;18.60;99.90;;;18.47;93.05;97025.13;5015485;28;20121;-47
2022/06/26 01:24:35;;;;;;;1.83;1.30;;;18.60;99.90;;;18.48;90.72;97021.50;5005057;28;20087;-49
2022/06/26 01:27:00;;;;;;;1.80;1.60;;;18.60;99.90;;;18.53;90.13;97020.31;5009278;28;20532;-47
2022/06/26 01:29:27;;;;;;;1.40;1.27;;;18.60;99.90;;;18.58;89.42;97024.31;5006557;28;20037;-47
2022/06/26 01:31:52;;;;;;;1.95;1.50;;;18.70;99.90;;;18.61;88.85;97013.41;5009524;28;20064;-45
2022/06/26 01:34:18;;;;;;;2.05;1.42;;;18.70;99.90;;;18.67;88.20;96994.25;5011200;28;20376;-47
2022/06/26 01:36:44;;;;;;;1.60;1.27;;;18.80;99.90;;;18.78;88.61;96995.25;4999608;28;20046;-46
2022/06/26 01:39:09;;;;;;;3.75;1.60;;;18.80;99.90;;;18.80;92.26;97007.50;5019351;28;20030;-46
2022/06/26 01:41:35;;;;;;;1.65;1.50;;;18.90;99.90;;;18.79;91.98;97013.84;5021643;28;20400;-47
2022/06/26 01:44:01;;;;;;;1.75;1.35;;;18.90;99.90;;;18.77;92.28;97017.56;5010845;28;20400;-47
2022/06/26 01:46:27;;;;;;;1.42;1.33;;;18.90;99.90;;;18.70;93.27;97033.25;5018094;28;20044;-48
2022/06/26 01:48:53;;;;;;;1.63;1.30;;;18.80;99.90;;;18.64;95.51;97055.91;5011537;28;20135;-47
2022/06/26 01:51:18;;;;;;;1.85;1.20;;;18.80;99.90;;;18.57;94.77;97043.13;5008272;28;20486;-48
2022/06/26 01:53:44;;;;;;;1.63;1.20;;;18.70;99.90;;;18.53;94.26;97030.97;5009084;28;20670;-47
2022/06/26 01:56:10;;;;;;;1.92;1.50;;;18.60;99.90;;;18.43;94.49;97042.34;5006151;28;20041;-47
2022/06/26 01:58:36;;;;;;;2.83;1.42;;;18.60;99.90;;;18.37;95.00;97026.78;5005057;28;20041;-47
2022/06/26 02:01:07;;;;;;;1.33;1.20;;;18.50;99.90;;;18.31;95.72;97025.41;5010376;28;20037;-48
2022/06/26 02:03:33;;;;;;;1.38;1.13;;;18.50;99.90;;;18.18;96.97;97005.06;5007622;28;20065;-47
2022/06/26 02:05:58;;;;;;;1.77;1.30;;;18.40;99.90;;;18.20;97.33;97017.38;5007449;28;20160;-47
2022/06/26 02:08:24;;;;;;;2.83;1.70;;;18.30;99.90;;;18.09;99.16;97019.97;5010494;28;20056;-47
2022/06/26 02:13:37;;;;;;;1.40;1.30;;;18.20;99.90;;;17.97;99.82;97027.06;5011675;28;20266;-45
2022/06/26 02:16:06;;;;;;;2.03;1.50;;;18.20;99.90;;;17.92;99.32;97032.72;5011340;28;20040;-48
2022/06/26 02:18:32;;;;;;;2.28;1.33;;;18.10;99.90;;;17.85;99.33;97039.44;5010776;28;20363;-47
2022/06/26 02:21:00;;;;;;;0.98;0.98;;;18.00;99.90;;;17.80;99.71;97044.25;4999951;28;20032;-46
2022/06/26 02:23:26;;;;;;;2.10;1.40;;;17.90;99.90;;;17.73;100.00;97043.00;5011475;28;20037;-44
2022/06/26 02:25:52;;;;;;;1.77;1.30;;;17.80;99.90;;;17.64;100.00;97055.16;5009229;28;21486;-48
2022/06/26 02:28:18;;;;;;;1.92;1.30;;;17.80;99.90;;;17.57;100.00;97059.22;5011823;28;20603;-47
2022/06/26 02:30:44;;;;;;;1.70;1.30;;;17.70;99.90;;;17.48;100.00;97058.06;5008438;28;20672;-48
2022/06/26 02:33:10;;;;;;;2.08;1.20;;;17.60;99.90;;;17.41;100.00;97055.91;5008756;28;20037;-44
2022/06/26 02:35:37;;;;;;;1.25;1.15;;;17.50;99.90;;;17.34;100.00;97051.03;5011135;28;20256;-47
2022/06/26 02:38:02;;;;;;;1.73;1.40;;;17.40;99.90;;;17.25;100.00;97049.00;5014999;28;20262;-47
2022/06/26 02:40:30;;;;;;;2.83;1.50;;;17.40;99.90;;;17.20;100.00;97035.13;5022056;28;20444;-48
2022/06/26 02:42:57;;;;;;;1.88;1.40;;;17.30;99.90;;;17.16;100.00;97039.81;5018486;28;20033;-47
2022/06/26 02:45:23;;;;;;;1.70;1.40;;;17.30;99.90;;;17.16;100.00;97041.66;5012402;28;20127;-47
2022/06/26 02:47:49;;;;;;;1.33;1.23;;;17.30;99.90;;;17.15;100.00;97051.44;5008819;28;20041;-47
2022/06/26 02:50:16;;;;;;;1.75;1.38;;;17.30;99.90;;;17.17;100.00;97046.88;5006649;28;20774;-47
2022/06/26 02:52:43;;;;;;;1.35;1.23;;;17.30;99.90;;;17.20;100.00;97055.63;5018209;28;20213;-45
2022/06/26 02:55:09;;;;;;;1.08;1.08;;;17.30;99.90;;;17.22;100.00;97043.88;5018182;28;20022;-45
2022/06/26 02:57:35;;;;;;;1.20;1.10;;;17.40;99.90;;;17.30;100.00;97041.53;5012948;28;20068;-43
2022/06/26 03:00:01;;;;;;;1.58;1.05;;;17.40;99.90;;;17.33;100.00;97046.63;4993515;28;20051;-43
2022/06/26 03:02:26;;;;;;;1.33;1.10;;;17.50;99.90;;;17.35;100.00;97055.41;5013218;28;20120;-44
2022/06/26 03:04:53;;;;;;;1.20;1.10;;;17.50;99.90;;;17.42;100.00;97045.13;5013517;28;20052;-47
2022/06/26 03:07:20;;;;;;;1.58;1.20;;;17.60;99.90;;;17.48;100.00;97054.50;5010569;28;20033;-45
2022/06/26 03:09:46;;;;;;;1.63;1.20;;;17.60;99.90;;;17.52;100.00;97054.22;5013032;28;20124;-47
2022/06/26 03:12:13;;;;;;;1.10;1.00;;;17.60;99.90;;;17.55;100.00;97061.16;4996947;28;20025;-47
2022/06/26 03:14:39;;;;;;;0.95;0.80;;;17.70;99.90;;;17.58;100.00;97055.59;5010905;28;20033;-47
2022/06/26 03:17:05;;;;;;;0.80;0.80;;;17.70;99.90;;;17.60;100.00;97040.31;5008270;28;20348;-47
2022/06/26 03:19:31;;;;;;;1.35;1.10;;;17.70;99.90;;;17.58;100.00;97034.25;5006941;28;20108;-47
2022/06/26 03:21:56;;;;;;;1.83;1.27;;;17.70;99.90;;;17.58;100.00;97026.25;5010147;28;20037;-46
2022/06/26 03:24:22;;;;;;;1.08;0.95;;;17.70;99.90;;;17.58;99.78;97034.25;5019562;28;20789;-47
2022/06/26 03:26:48;;;;;;;1.13;1.00;;;17.70;99.90;;;17.55;100.00;97034.50;5007346;28;20037;-47
2022/06/26 03:29:14;;;;;;;0.88;0.80;;;17.70;99.90;;;17.57;99.90;97027.22;5005247;28;20452;-47
2022/06/26 03:31:41;;;;;;;1.45;0.90;;;17.70;99.90;;;17.56;99.87;97036.19;5010313;28;20029;-44
2022/06/26 03:34:07;;;;;;;0.82;0.82;;;17.70;99.90;;;17.55;99.59;97030.00;5019291;28;20038;-47
2022/06/26 03:36:33;;;;;;;0.80;0.80;;;17.70;99.90;;;17.54;99.91;97025.63;5008253;28;20520;-46
2022/06/26 03:39:00;;;;;;;1.05;0.90;;;17.60;99.90;;;17.53;100.00;97028.38;5014528;28;20485;-47
2022/06/26 03:41:27;;;;;;;1.42;0.80;;;17.60;99.90;;;17.55;100.00;97037.16;5008010;28;20037;-47
2022/06/26 03:43:53;;;;;;;1.20;1.02;;;17.70;99.90;;;17.53;100.00;97036.38;5014336;28;20026;-44
2022/06/26 03:46:20;;;;;;;0.88;0.80;;;17.60;99.90;;;17.48;100.00;97038.53;5011133;28;20050;-47
2022/06/26 03:48:45;;;;;;;1.02;0.80;;;17.60;99.90;;;17.48;100.00;97057.19;5009696;28;20029;-47
2022/06/26 03:51:11;;;;;;;2.80;0.82;;;17.60;99.90;;;17.43;100.00;97054.00;5007649;28;20083;-47
2022/06/26 03:53:37;;;;;;;1.00;0.95;;;17.60;99.90;;;17.41;100.00;97048.78;5012134;28;20112;-46
2022/06/26 03:56:03;;;;;;;0.85;0.80;;;17.50;99.90;;;17.42;100.00;97053.13;5010745;28;20044;-45
2022/06/26 03:58:30;;;;;;;2.05;0.90;;;17.50;99.90;;;17.38;100.00;97051.66;5008174;28;20056;-47
2022/06/26 04:00:57;;;;;;;1.02;0.90;;;17.50;99.90;;;17.43;100.00;97051.34;5015862;28;20037;-47
2022/06/26 04:03:23;;;;;;;1.67;1.15;;;17.50;99.90;;;17.45;100.00;97060.09;5020557;28;20091;-46
2022/06/26 04:05:49;;;;;;;1.10;1.00;;;17.60;99.90;;;17.53;100.00;97057.72;5013390;28;20355;-46
2022/06/26 04:08:16;;;;;;;0.80;0.80;;;17.60;99.90;;;17.61;99.93;97062.53;5005919;28;20049;-47
2022/06/26 04:10:42;;;;;;;0.60;0.60;;;17.70;99.90;;;17.66;99.80;97069.25;5016360;28;20088;-43
2022/06/26 04:13:10;;;;;;;3.22;1.00;;;17.80;99.90;;;17.71;100.00;97072.44;5008022;28;20363;-44
2022/06/26 04:15:37;;;;;;;0.85;0.80;;;17.80;99.90;;;17.77;100.00;97071.13;5007443;28;20056;-47
2022/06/26 04:18:04;;;;;;;0.90;0.90;;;17.90;99.90;;;17.82;100.00;97069.00;5008323;28;20120;-47
2022/06/26 04:20:30;;;;;;;0.93;0.90;;;17.90;99.90;;;17.86;100.00;97069.66;5010494;28;20032;-47
2022/06/26 04:23:02;;;;;;;0.95;0.80;;;18.00;99.90;;;17.86;100.00;97072.34;5012173;28;20025;-46
2022/06/26 04:25:30;;;;;;;0.70;0.70;;;18.00;99.90;;;17.86;100.00;97070.50;5018257;28;20033;-47
2022/06/26 04:27:56;;;;;;;1.10;0.90;;;18.00;99.90;;;17.86;100.00;97067.00;5012521;28;20385;-45
2022/06/26 04:30:22;;;;;;;0.93;0.73;;;18.00;99.90;;;17.84;100.00;97066.22;5012651;28;20036;-47
2022/06/26 04:32:48;;;;;;;1.23;0.60;;;17.90;99.90;;;17.82;100.00;97065.47;5007503;28;20060;-47
2022/06/26 04:35:15;;;;;;;1.40;0.73;;;17.90;99.90;;;17.79;100.00;97060.38;5008047;28;20068;-44
2022/06/26 04:37:40;;;;;;;1.50;1.00;;;17.90;99.90;;;17.77;100.00;97055.13;5006798;28;20056;-45
2022/06/26 04:40:10;;;;;;;0.93;0.80;;;17.90;99.90;;;17.73;100.00;97054.50;5013421;28;20116;-46
2022/06/26 04:42:37;;;;;;;0.70;0.70;;;17.80;99.90;;;17.70;100.00;97052.03;5013308;28;20045;-47
2022/06/26 04:45:04;;;;;;;1.20;0.80;;;17.80;99.90;;;17.69;100.00;97049.50;5012057;28;20092;-47
2022/06/26 04:47:29;;;;;;;0.85;0.77;;;17.80;99.90;;;17.73;100.00;97043.84;5018814;28;20029;-45
2022/06/26 04:49:55;;;;;;;0.65;0.65;;;17.80;99.90;;;17.84;100.00;97045.72;5008134;28;20091;-45
2022/06/26 04:52:21;;;;;;;1.27;0.63;;;17.90;99.90;;;17.96;100.00;97037.84;5006534;28;20048;-47
2022/06/26 04:54:47;;;;;;;1.00;0.68;;;18.00;99.90;;;18.09;100.00;97044.00;5007067;28;20053;-44
2022/06/26 04:57:12;;;;;;;0.75;0.73;;;18.20;99.90;;;18.24;100.00;97036.66;5011831;28;20037;-47
2022/06/26 04:59:38;;;;;;;1.02;0.95;;;18.30;99.90;;;18.25;100.00;97020.53;5006646;28;20504;-45
2022/06/26 05:02:06;;;;;;;0.82;0.70;;;18.50;99.90;;;18.48;100.00;97042.00;5010460;28;20061;-47
2022/06/26 05:04:32;;;;;;;0.70;0.70;;;18.60;99.90;;;18.60;99.95;97053.59;5009672;28;20038;-44
2022/06/26 05:06:58;;;;;;;1.02;0.70;;;18.70;99.90;;;18.72;97.80;97050.00;5007761;28;20041;-44
2022/06/26 05:09:25;;;;;;;0.70;0.70;;;18.90;99.90;;;18.80;92.93;97066.28;5010344;28;20033;-47
2022/06/26 05:11:51;;;;;;;1.65;0.82;;;18.90;99.90;;;18.89;94.22;97065.59;5011073;28;20049;-47
2022/06/26 05:14:18;;;;;;;1.58;0.95;;;19.00;99.90;;;19.00;97.06;97061.28;5007314;28;20084;-47
2022/06/26 05:16:45;;;;;;;4.70;1.30;;;19.10;99.90;;;18.98;100.00;97064.06;5007690;28;20135;-46
2022/06/26 05:19:10;;;;;;;1.98;1.45;;;19.10;99.90;;;18.95;95.18;97064.31;5005739;28;20041;-47
2022/06/26 05:21:36;;;;;;;1.73;1.30;;;19.10;99.90;;;19.00;96.01;97071.97;5008237;28;20032;-46
2022/06/26 05:24:02;;;;;;;2.00;1.50;;;19.10;99.90;;;18.99;95.05;97070.28;5007070;28;20064;-47
2022/06/26 05:26:28;;;;;;;1.95;1.50;;;19.10;99.90;;;19.03;94.85;97088.63;5006604;28;20040;-48
2022/06/26 05:28:54;;;;;;;1.65;1.42;;;19.10;99.90;;;19.08;94.15;97089.13;5009780;28;20029;-47
2022/06/26 05:31:20;;;;;;;1.67;1.30;;;19.20;99.90;;;19.14;93.90;97100.31;5009785;28;20026;-47
2022/06/26 05:33:46;;;;;;;4.32;1.10;;;19.20;99.90;;;19.20;93.73;97097.16;5009502;28;20037;-44
2022/06/26 05:36:11;;;;;;;3.80;1.20;;;19.20;99.90;;;19.23;92.98;97099.59;5005317;28;20041;-47
2022/06/26 05:38:38;;;;;;;2.13;1.20;;;19.30;99.90;;;19.31;93.27;97094.53;5005473;28;20034;-47
2022/06/26 05:41:04;;;;;;;1.20;1.10;;;19.30;99.90;;;19.39;91.16;97096.59;5008411;28;20505;-46
2022/06/26 05:43:31;;;;;;;1.92;1.35;;;19.40;99.90;;;19.48;91.19;97093.22;5014517;28;20826;-47
2022/06/26 05:45:57;;;;;;;4.00;1.42;;;19.50;99.90;;;19.51;89.65;97105.50;5009561;28;20025;-43
2022/06/26 05:48:24;;;;;;;4.03;1.55;;;19.50;99.90;;;19.53;90.38;97104.41;5016719;28;20037;-46
2022/06/26 05:50:50;;;;;;;1.92;1.40;;;19.60;99.90;;;19.57;91.44;97103.19;5019435;28;20064;-44
2022/06/26 05:53:16;;;;;;;1.60;1.20;;;19.60;99.90;;;19.54;92.44;97103.44;5009408;28;20033;-46
2022/06/26 05:55:42;;;;;;;1.58;1.08;;;19.50;99.90;;;19.44;92.98;97111.31;5011393;28;20035;-43
2022/06/26 05:58:08;;;;;;;1.83;1.10;;;19.40;99.90;;;19.39;93.50;97107.31;5014532;28;20038;-46
2022/06/26 06:00:35;;;;;;;2.55;1.17;;;19.40;99.90;;;19.60;94.58;97112.81;5019784;28;20042;-46
2022/06/26 06:03:02;;;;;;;2.20;1.50;;;19.50;99.90;;;19.82;91.11;97120.03;5016138;28;20505;-45
2022/06/26 06:05:27;;;;;;;1.85;1.30;;;19.70;99.90;;;20.08;89.42;97117.09;5015037;28;21024;-46
2022/06/26 06:07:54;;;;;;;1.90;1.00;;;20.00;99.90;;;20.36;87.52;97116.56;5012881;28;20090;-46
2022/06/26 06:10:23;;;;;;;0.80;0.80;;;20.20;99.90;;;20.51;82.14;97118.97;5015438;28;20053;-47
2022/06/26 06:12:50;;;;;;;1.58;1.00;;;20.40;99.90;;;20.69;80.43;97112.16;5014829;28;20324;-46
2022/06/26 06:15:18;;;;;;;1.00;0.90;;;20.60;99.90;;;20.87;79.85;97114.25;5012179;28;20108;-47
2022/06/26 06:17:44;;;;;;;1.88;1.00;;;20.80;99.90;;;20.91;77.01;97110.38;5014614;28;20030;-46
2022/06/26 06:20:19;;;;;;;0.80;0.70;;;20.80;99.90;;;20.96;75.21;97113.50;4994142;28;20276;-47
2022/06/26 06:22:54;;;;;;;0.60;0.60;;;20.90;99.90;;;21.13;72.14;97120.97;5013455;28;20035;-46
2022/06/26 06:25:21;;;;;;;0.75;0.75;;;21.00;99.90;;;21.29;68.84;97131.25;5015838;28;20040;-44
2022/06/26 06:27:48;;;;;;;0.60;0.60;;;21.20;99.90;;;21.41;66.85;97126.69;5014131;28;20033;-46
2022/06/26 06:30:15;;;;;;;1.38;0.60;;;21.40;99.90;;;21.57;67.34;97128.94;5009830;28;20033;-46
2022/06/26 06:32:42;;;;;;;0.60;0.60;;;21.50;99.90;;;21.67;66.64;97113.72;5008409;28;20033;-47
2022/06/26 06:35:11;;;;;;;0.73;0.60;;;21.60;99.90;;;21.75;65.00;97118.47;5009936;28;20059;-46
2022/06/26 06:37:37;;;;;;;1.70;0.70;;;21.70;99.90;;;21.78;64.36;97118.16;5003383;28;20560;-48
2022/06/26 06:40:04;;;;;;;1.17;0.60;;;21.70;99.90;;;21.82;63.66;97122.31;5005430;28;20042;-45
2022/06/26 06:42:29;;;;;;;1.20;0.85;;;21.80;99.90;;;21.84;63.58;97124.84;4999362;28;20049;-46
2022/06/26 06:44:55;;;;;;;0.90;0.90;;;21.80;99.90;;;21.69;62.57;97127.03;5004529;28;20058;-45
2022/06/26 06:47:21;;;;;;;0.88;0.80;;;21.70;99.90;;;21.60;63.40;97128.66;5004391;28;20026;-46
2022/06/26 06:49:46;;;;;;;1.30;0.70;;;21.60;99.90;;;21.44;63.04;97122.88;5007268;28;20030;-45
2022/06/26 06:52:12;;;;;;;1.90;0.90;;;21.60;99.90;;;21.51;64.95;97124.94;5002800;28;20083;-46
2022/06/26 06:54:38;;;;;;;2.83;0.70;;;21.50;99.90;;;21.48;66.24;97138.63;5006668;28;20444;-45
2022/06/26 06:57:04;;;;;;;0.98;0.80;;;21.50;99.90;;;21.51;66.17;97132.13;5010937;28;20225;-47
2022/06/26 06:59:30;;;;;;;0.88;0.65;;;21.50;99.90;;;21.56;64.41;97121.03;5015134;28;20121;-47
2022/06/26 07:01:55;;;;;;;0.75;0.60;;;21.60;99.90;;;21.68;62.82;97141.44;5004864;28;20041;-47
2022/06/26 07:04:22;;;;;;;1.40;0.82;;;21.70;99.90;;;21.68;61.81;97144.97;5011401;28;20116;-47
2022/06/26 07:06:48;;;;;;;1.30;0.80;;;21.80;99.90;;;21.80;62.87;97145.72;5004105;28;20650;-46
2022/06/26 07:09:13;;;;;;;4.65;1.17;;;21.80;99.90;;;21.70;62.08;97144.84;5007935;28;20481;-43
2022/06/26 07:11:39;;;;;;;1.70;0.95;;;21.90;99.90;;;21.83;62.95;97150.84;5009473;28;20033;-46
2022/06/26 07:14:05;;;;;;;1.42;0.88;;;21.80;99.90;;;21.92;65.15;97143.81;5015040;28;20022;-47
2022/06/26 07:16:31;;;;;;;0.88;0.82;;;21.90;99.90;;;22.08;66.84;97149.53;5018305;28;20096;-44
2022/06/26 07:18:57;;;;;;;3.90;1.00;;;22.10;99.90;;;22.17;63.95;97149.72;5015664;28;20155;-46
2022/06/26 07:21:23;;;;;;;0.90;0.80;;;22.20;99.90;;;22.29;63.78;97141.47;5009182;28;20104;-47
2022/06/26 07:23:49;;;;;;;3.15;1.10;;;22.30;99.90;;;22.38;64.57;97136.25;5016959;28;20057;-48
2022/06/26 07:26:14;;;;;;;2.45;0.82;;;22.40;99.90;;;22.55;65.16;97134.75;5012568;28;20116;-46
2022/06/26 07:28:40;;;;;;;1.10;1.00;;;22.50;99.90;;;22.63;64.45;97141.13;5015694;28;20681;-44
2022/06/26 07:31:06;;;;;;;1.15;0.93;;;22.60;99.90;;;22.63;61.25;97137.56;5012441;28;20505;-46
2022/06/26 07:36:16;;;;;;;1.77;1.00;;;22.70;99.90;;;22.74;60.59;97150.91;5009950;28;20433;-46
2022/06/26 07:38:42;;;;;;;1.25;0.85;;;22.70;99.90;;;22.85;62.72;97147.25;5011613;28;20484;-43
2022/06/26 07:41:08;;;;;;;0.90;0.90;;;22.80;99.90;;;22.94;62.37;97154.47;5013742;28;20033;-45
2022/06/26 07:43:34;;;;;;;0.70;0.70;;;22.90;99.90;;;22.97;59.25;97148.81;5015367;28;20038;-47
2022/06/26 07:46:00;;;;;;;1.67;1.00;;;23.00;99.90;;;22.97;59.31;97150.63;5015042;28;20033;-46
2022/06/26 07:48:25;;;;;;;1.08;0.80;;;23.00;99.90;;;23.00;58.70;97153.06;5013074;28;21107;-46
2022/06/26 07:50:51;;;;;;;1.15;0.73;;;23.00;99.90;;;23.13;58.97;97148.31;5011387;28;20033;-47
2022/06/26 07:53:18;;;;;;;0.82;0.80;;;23.10;99.90;;;23.21;61.70;97148.41;5016050;28;20037;-46
2022/06/26 07:55:43;;;;;;;1.08;0.98;;;23.20;99.90;;;23.25;59.58;97154.38;5015881;28;20113;-46
2022/06/26 07:58:09;;;;;;;1.00;0.90;;;23.20;99.90;;;23.23;57.69;97149.13;5008265;28;20034;-45
2022/06/26 08:00:35;;;;;;;1.17;0.90;;;23.30;99.90;;;23.26;57.74;97150.69;5002821;28;20121;-47
2022/06/26 08:03:09;;;;;;;3.50;2.00;;;23.20;99.90;;;23.33;58.75;97129.44;5009223;28;20547;-47
2022/06/26 08:05:36;;;;;;;1.00;1.00;;;23.30;99.90;;;23.38;59.47;97128.03;5009010;28;20532;-47
2022/06/26 08:08:03;;;;;;;1.48;1.10;;;23.40;99.90;;;23.34;59.27;97129.28;5004380;28;20048;-47
2022/06/26 08:10:29;;;;;;;2.08;0.85;;;23.30;99.90;;;23.34;59.89;97125.75;5001020;28;20038;-45
2022/06/26 08:12:55;;;;;;;2.35;0.93;;;23.40;99.90;;;23.31;59.19;97140.38;5018460;28;20076;-45
2022/06/26 08:15:22;;;;;;;1.00;0.90;;;23.30;99.90;;;23.22;64.68;97135.81;4997036;28;20060;-45
2022/06/26 08:17:47;;;;;;;0.70;0.70;;;23.30;99.90;;;23.24;61.47;97142.75;5017156;28;20037;-44
2022/06/26 08:20:13;;;;;;;1.20;1.10;;;23.30;99.90;;;23.35;61.45;97138.25;5008776;28;20491;-46
2022/06/26 08:22:39;;;;;;;1.42;1.10;;;23.30;99.90;;;23.29;61.23;97136.94;5015108;28;20029;-46
2022/06/26 08:25:06;;;;;;;0.98;0.93;;;23.40;99.90;;;23.21;62.55;97132.28;5015898;28;20041;-46
2022/06/26 08:27:31;;;;;;;1.35;1.23;;;23.30;99.90;;;23.21;60.10;97136.81;5012340;28;20345;-47
2022/06/26 08:29:57;;;;;;;1.08;1.00;;;23.30;99.90;;;23.27;60.03;97135.41;5006292;28;20051;-47
2022/06/26 08:32:23;;;;;;;2.55;1.00;;;23.30;99.90;;;23.29;61.21;97131.56;5011715;28;20030;-44
2022/06/26 08:34:49;;;;;;;0.95;0.95;;;23.30;99.90;;;23.33;62.72;97138.38;5014697;28;20033;-47
2022/06/26 08:37:16;;;;;;;1.10;1.00;;;23.40;99.90;;;23.48;61.50;97152.22;5010296;28;20128;-46
2022/06/26 08:39:43;;;;;;;2.15;1.15;;;23.50;99.90;;;23.52;59.60;97139.34;5007365;28;20033;-45
2022/06/26 08:42:09;;;;;;;1.65;0.98;;;23.60;99.90;;;23.64;59.47;97143.56;5013868;28;20116;-44
2022/06/26 08:44:42;;;;;;;1.05;0.80;;;23.60;99.90;;;23.71;59.26;97139.31;5014601;28;20631;-45
2022/06/26 08:47:10;;;;;;;0.80;0.70;;;23.70;99.90;;;23.75;58.87;97146.09;5008364;28;20124;-46
2022/06/26 08:49:36;;;;;;;1.00;0.90;;;23.70;99.90;;;23.77;57.65;97145.94;5010355;28;20060;-47
2022/06/26 08:52:03;;;;;;;1.40;0.80;;;23.80;99.40;;;23.65;59.82;97139.88;5007070;28;20909;-44
2022/06/26 08:54:30;;;;;;;1.20;1.00;;;23.60;99.70;;;23.68;58.70;97146.81;5007034;28;20040;-45
2022/06/26 08:56:57;;;;;;;2.58;1.05;;;23.70;99.80;;;23.73;58.29;97152.63;5014775;28;20122;-45
2022/06/26 08:59:23;;;;;;;1.02;0.93;;;23.70;99.20;;;23.76;59.78;97145.09;5011874;28;20127;-47
2022/06/26 09:01:50;;;;;;;1.08;0.98;;;23.80;99.90;;;23.85;58.80;97145.22;5013353;28;20036;-45
2022/06/26 09:04:16;;;;;;;2.35;1.00;;;23.80;99.60;;;23.90;57.52;97142.97;5009969;28;20030;-44
2022/06/26 09:06:44;;;;;;;1.17;0.80;;;23.90;99.00;;;23.81;55.83;97150.94;5008473;28;20353;-43
2022/06/26 09:09:16;;;;;;;2.25;0.90;;;23.90;98.00;;;23.60;57.17;97147.56;5005720;28;20120;-44
2022/06/26 09:11:42;;;;;;;;;;;23.70;98.20;;;23.58;57.81;97145.00;5011632;28;20025;-45
2022/06/26 09:14:10;;;;;;;1.40;0.90;;;23.60;98.60;;;23.63;59.82;97156.19;5003331;28;20206;-46
2022/06/26 09:16:38;;;;;;;1.45;0.88;;;23.70;99.40;;;23.79;59.89;97160.94;5006828;28;20180;-46
2022/06/26 09:19:18;;;;;;;1.00;0.80;;;23.80;99.80;;;23.92;59.69;97158.00;5009334;28;20179;-46
2022/06/26 09:21:45;;;;;;;2.35;0.90;;;24.00;99.50;;;23.82;60.90;97154.47;5012689;28;20030;-43
2022/06/26 09:24:16;;;;;;;1.05;0.95;;;24.00;99.80;;;23.74;57.52;97157.00;4989355;28;20686;-47
2022/06/26 09:26:44;;;;;;;1.27;1.05;;;23.90;98.40;;;23.55;55.01;97156.03;5012951;28;20037;-47
2022/06/26 09:29:18;;;;;;;1.10;0.90;;;23.80;97.40;;;23.52;57.12;97150.94;5010856;28;20029;-47
2022/06/26 09:31:44;;;;;;;0.98;0.90;;;23.60;97.90;;;23.57;57.72;97153.22;5004227;28;20030;-47
2022/06/26 09:34:25;;;;;;;0.80;0.80;;;23.70;98.40;;;23.68;58.02;97155.72;5013371;28;20034;-45
2022/06/26 09:36:58;;;;;;;1.02;0.90;;;23.80;98.60;;;23.81;59.60;97159.00;4988408;28;20041;-47
2022/06/26 09:39:26;;;;;;;0.80;0.80;;;23.80;99.10;;;23.92;58.62;97155.31;4997098;28;20038;-47
2022/06/26 09:41:51;;;;;;;1.35;1.10;;;24.00;98.80;;;24.00;58.10;97158.09;5009283;28;20116;-47
2022/06/26 09:44:22;;;;;;;0.95;0.80;;;24.00;98.40;;;24.11;56.79;97153.53;4986989;28;20029;-46
2022/06/26 09:46:49;;;;;;;1.08;1.00;;;24.10;97.90;;;24.26;56.58;97151.19;5007263;28;20037;-47
2022/06/26 09:49:16;;;;;;;0.90;0.80;;;24.30;98.00;;;24.43;55.74;97161.19;4995060;28;20029;-46
2022/06/26 09:51:44;;;;;;;3.22;1.00;;;24.50;97.40;;;24.64;56.11;97152.88;5005998;28;20122;-46
2022/06/26 09:54:10;;;;;;;1.10;1.00;;;24.70;97.60;;;24.85;56.19;97144.50;4994665;28;20061;-45
2022/06/26 09:56:36;;;;;;;1.88;0.80;;;25.00;97.40;;;25.13;55.60;97142.59;4991060;28;20037;-47
2022/06/26 09:59:02;;;;;;;1.77;1.00;;;25.30;97.40;;;25.31;55.41;97150.72;5006290;28;20036;-45
2022/06/26 10:07:13;;;;;;;1.10;1.00;;;25.80;96.60;;;25.78;53.25;97151.41;5012867;22;20405;-40
2022/06/26 10:09:40;;;;;;;1.27;0.93;;;26.00;96.10;;;25.98;52.97;97142.09;4995798;28;20101;-40
2022/06/26 10:12:07;;;;;;;1.38;1.08;;;26.20;95.50;;;26.05;53.48;97143.16;5019955;28;20032;-40
2022/06/26 10:14:43;;;;;;;1.20;0.93;;;26.10;95.60;;;25.91;53.17;97143.72;5010630;28;20559;-40
2022/06/26 10:18:01;;;;;;;1.25;1.05;;;26.10;95.40;;;25.69;54.15;97143.25;4988469;28;20038;-40
2022/06/26 10:20:31;;;;;;;0.90;0.90;;;25.80;96.30;;;25.45;55.78;97137.69;4964455;28;20043;-41
2022/06/26 10:22:56;;;;;;;1.25;0.85;;;25.60;96.30;;;25.46;56.73;97147.47;4992554;28;20806;-40
2022/06/26 10:25:22;;;;;;;1.33;0.93;;;25.50;97.10;;;25.41;54.30;97136.28;4995973;28;20030;-40
2022/06/26 10:27:47;;;;;;;2.90;1.25;;;25.50;96.10;;;25.46;53.81;97147.47;4996720;28;20037;-39